Time;durP1;ratioP1;P1;durP2;ratioP2;P2;SDS_P1;SDS_P2;PMS_P1;PMS_P2;Temp;Humidity;BMP_temperature;BMP_pressure;BME280_temperature;BME280_humidity;BME280_pressure;Samples;Min_cycle;Max_cycle;Signal;HPM_P1;HPM_P2
2021/05/22 00:01:19;;;;;;;24.43;7.30;;;12.00;99.90;;;;;;6327674;22;20198;-82
2021/05/22 00:03:45;;;;;;;26.90;5.93;;;12.10;99.90;;;;;;6326780;22;20167;-80
2021/05/22 00:06:11;;;;;;;24.57;6.60;;;12.10;99.90;;;;;;6328193;22;20182;-79
2021/05/22 00:08:38;;;;;;;34.57;6.23;;;12.10;99.90;;;;;;6328678;22;20171;-83
2021/05/22 00:11:05;;;;;;;35.10;6.67;;;12.10;99.90;;;;;;6327941;22;20171;-82
2021/05/22 00:13:31;;;;;;;29.87;6.83;;;12.10;99.90;;;;;;6328035;22;20228;-81
2021/05/22 00:15:57;;;;;;;30.13;5.73;;;12.10;99.90;;;;;;6328631;22;20178;-82
2021/05/22 00:18:23;;;;;;;35.43;6.10;;;12.10;99.90;;;;;;6327539;22;20681;-82
2021/05/22 00:20:50;;;;;;;27.67;6.57;;;12.10;99.90;;;;;;6328876;22;20221;-78
2021/05/22 00:23:16;;;;;;;28.33;6.77;;;12.00;99.90;;;;;;6329669;22;20175;-78
2021/05/22 00:25:42;;;;;;;34.00;6.50;;;12.00;99.90;;;;;;6328455;22;20178;-81
2021/05/22 00:28:10;;;;;;;27.53;6.10;;;12.00;99.90;;;;;;6328086;22;20221;-85
2021/05/22 00:30:36;;;;;;;22.63;6.07;;;12.00;99.90;;;;;;6327734;22;20194;-82
2021/05/22 00:33:03;;;;;;;31.00;6.97;;;12.00;99.90;;;;;;6327011;22;20195;-82
2021/05/22 00:35:30;;;;;;;34.43;6.03;;;12.00;99.90;;;;;;6327758;22;20167;-82
2021/05/22 00:37:57;;;;;;;31.87;5.83;;;12.00;99.90;;;;;;6327445;22;20163;-80
2021/05/22 00:40:23;;;;;;;26.23;5.63;;;11.90;99.90;;;;;;6327827;22;20167;-82
2021/05/22 00:42:49;;;;;;;27.63;6.47;;;11.90;99.90;;;;;;6327843;22;20172;-83
2021/05/22 00:45:19;;;;;;;30.80;6.83;;;11.80;99.90;;;;;;6327498;22;20187;-80
2021/05/22 00:47:47;;;;;;;34.73;7.33;;;11.80;99.90;;;;;;6326998;22;20230;-81
2021/05/22 00:50:17;;;;;;;30.87;6.63;;;11.70;99.90;;;;;;6327378;22;20182;-80
2021/05/22 00:52:43;;;;;;;36.57;5.97;;;11.60;99.90;;;;;;6326893;22;20198;-81
2021/05/22 00:55:11;;;;;;;34.80;7.43;;;11.60;99.90;;;;;;6327037;22;20233;-82
2021/05/22 00:57:39;;;;;;;37.80;7.60;;;11.60;99.90;;;;;;6327581;22;20199;-80
2021/05/22 01:00:10;;;;;;;26.53;6.87;;;11.50;99.90;;;;;;6326832;22;20248;-82
2021/05/22 01:02:38;;;;;;;40.23;7.10;;;11.50;99.90;;;;;;6328333;22;20167;-78
2021/05/22 01:05:06;;;;;;;30.07;6.10;;;11.50;99.90;;;;;;6327035;22;20242;-79
2021/05/22 01:07:32;;;;;;;34.10;6.43;;;11.60;99.90;;;;;;6326709;22;20175;-83
2021/05/22 01:10:01;;;;;;;29.40;6.20;;;11.60;99.90;;;;;;6327322;22;20849;-80
2021/05/22 01:12:31;;;;;;;39.67;6.67;;;11.60;99.90;;;;;;6328159;22;20198;-78
2021/05/22 01:15:03;;;;;;;37.97;7.27;;;11.50;99.90;;;;;;6327292;22;20590;-80
2021/05/22 01:17:30;;;;;;;43.20;7.80;;;11.50;99.90;;;;;;6327101;22;20229;-81
2021/05/22 01:20:06;;;;;;;30.13;6.53;;;11.50;99.90;;;;;;6326570;22;20618;-80
2021/05/22 01:22:37;;;;;;;35.33;6.77;;;11.50;99.90;;;;;;6326893;22;20747;-80
2021/05/22 01:25:07;;;;;;;34.50;6.90;;;11.50;99.90;;;;;;6327863;22;20251;-80
2021/05/22 01:27:35;;;;;;;33.10;6.80;;;11.50;99.90;;;;;;6325122;22;20171;-79
2021/05/22 01:30:01;;;;;;;27.00;6.67;;;11.40;99.90;;;;;;6326464;22;20799;-80
2021/05/22 01:32:28;;;;;;;28.57;6.57;;;11.40;99.90;;;;;;6327370;22;20478;-78
2021/05/22 01:34:55;;;;;;;34.07;7.27;;;11.40;99.90;;;;;;6325814;22;20229;-82
2021/05/22 01:37:21;;;;;;;28.50;6.30;;;11.40;99.90;;;;;;6326446;22;20197;-82
2021/05/22 01:39:48;;;;;;;24.93;6.53;;;11.40;99.90;;;;;;6326731;22;20176;-80
2021/05/22 01:42:14;;;;;;;42.80;8.10;;;11.40;99.90;;;;;;6326950;22;20168;-83
2021/05/22 01:44:45;;;;;;;48.27;9.43;;;11.40;99.90;;;;;;6327252;22;20172;-80
2021/05/22 01:47:12;;;;;;;31.90;6.33;;;11.40;99.90;;;;;;6327216;22;20612;-80
2021/05/22 01:49:38;;;;;;;32.50;7.93;;;11.30;99.90;;;;;;6326453;22;20171;-81
2021/05/22 01:52:05;;;;;;;39.37;7.90;;;11.30;99.90;;;;;;6326962;22;20234;-80
2021/05/22 01:54:32;;;;;;;34.83;6.60;;;11.30;99.90;;;;;;6327172;22;20171;-82
2021/05/22 01:57:00;;;;;;;34.23;6.77;;;11.30;99.90;;;;;;6326375;22;20211;-82
2021/05/22 01:59:27;;;;;;;21.77;5.67;;;11.30;99.90;;;;;;6326937;22;20168;-81
2021/05/22 02:01:56;;;;;;;35.00;6.97;;;11.30;99.90;;;;;;6327377;22;20712;-83
2021/05/22 02:04:28;;;;;;;32.57;7.27;;;11.30;99.90;;;;;;6326209;22;20178;-80
2021/05/22 02:06:56;;;;;;;36.20;8.33;;;11.30;99.90;;;;;;6327203;22;20168;-80
2021/05/22 02:09:24;;;;;;;23.30;7.10;;;11.30;99.90;;;;;;6326438;22;20178;-81
2021/05/22 02:11:53;;;;;;;31.60;7.07;;;11.30;99.90;;;;;;6328414;22;20163;-77
2021/05/22 02:14:24;;;;;;;39.43;8.40;;;11.30;99.90;;;;;;6328487;22;20205;-77
2021/05/22 02:16:52;;;;;;;28.47;6.50;;;11.30;99.90;;;;;;6327466;22;20814;-81
2021/05/22 02:19:22;;;;;;;35.13;7.27;;;11.20;99.90;;;;;;6328519;22;20228;-83
2021/05/22 02:21:48;;;;;;;50.77;10.40;;;11.20;99.90;;;;;;6327544;22;20221;-79
2021/05/22 02:24:18;;;;;;;32.97;6.27;;;11.20;99.90;;;;;;6328109;22;20434;-79
2021/05/22 02:26:45;;;;;;;34.50;5.60;;;11.20;99.90;;;;;;6328349;22;20179;-78
2021/05/22 02:29:16;;;;;;;40.90;6.97;;;11.20;99.90;;;;;;6329493;22;20194;-80
2021/05/22 02:31:45;;;;;;;36.03;9.27;;;11.20;99.90;;;;;;6327211;22;20171;-78
2021/05/22 02:34:14;;;;;;;39.83;9.60;;;11.20;99.90;;;;;;6329127;22;20175;-81
2021/05/22 02:36:42;;;;;;;33.07;6.80;;;11.20;99.90;;;;;;6328176;22;20163;-84
2021/05/22 02:39:08;;;;;;;38.43;7.97;;;11.20;99.90;;;;;;6327619;22;20174;-82
2021/05/22 02:41:37;;;;;;;30.83;7.03;;;11.10;99.90;;;;;;6329237;22;20240;-81
2021/05/22 02:44:05;;;;;;;35.60;7.80;;;11.10;99.90;;;;;;6327221;22;20179;-83
2021/05/22 02:46:36;;;;;;;36.03;7.03;;;11.10;99.90;;;;;;6328699;22;20178;-83
2021/05/22 02:49:05;;;;;;;36.53;7.37;;;11.10;99.90;;;;;;6328032;22;20167;-82
2021/05/22 02:51:32;;;;;;;37.63;8.37;;;11.20;99.90;;;;;;6327168;22;20164;-78
2021/05/22 02:54:00;;;;;;;34.03;7.43;;;11.20;99.90;;;;;;6328500;22;20198;-82
2021/05/22 02:56:29;;;;;;;38.53;8.97;;;11.20;99.90;;;;;;6326977;22;20203;-80
2021/05/22 02:58:56;;;;;;;40.33;8.63;;;11.20;99.90;;;;;;6327084;22;20214;-81
2021/05/22 03:01:22;;;;;;;38.43;7.67;;;11.20;99.90;;;;;;6328463;22;20599;-77
2021/05/22 03:03:49;;;;;;;32.27;6.80;;;11.10;99.90;;;;;;6328342;22;20178;-78
2021/05/22 03:06:15;;;;;;;34.03;8.23;;;11.10;99.90;;;;;;6328681;22;20221;-82
2021/05/22 03:08:43;;;;;;;36.00;7.97;;;11.10;99.90;;;;;;6328053;22;20171;-83
2021/05/22 03:11:11;;;;;;;31.77;6.17;;;11.10;99.90;;;;;;6326273;22;20548;-77
2021/05/22 03:13:37;;;;;;;43.53;8.27;;;11.10;99.90;;;;;;6326745;22;20192;-78
2021/05/22 03:16:04;;;;;;;36.30;8.60;;;11.10;99.90;;;;;;6327254;22;20178;-79
2021/05/22 03:18:30;;;;;;;41.60;8.77;;;11.10;99.90;;;;;;6327947;22;20175;-81
2021/05/22 03:20:57;;;;;;;38.47;8.20;;;11.00;99.90;;;;;;6327135;22;20199;-77
2021/05/22 03:23:23;;;;;;;33.87;7.37;;;11.10;99.90;;;;;;6327162;22;20171;-79
2021/05/22 03:25:49;;;;;;;34.03;8.23;;;11.10;99.90;;;;;;6327679;22;20175;-80
2021/05/22 03:28:17;;;;;;;43.00;8.80;;;11.10;99.90;;;;;;6326586;22;20983;-83
2021/05/22 03:30:43;;;;;;;39.67;7.63;;;11.10;99.90;;;;;;6328628;22;20225;-79
2021/05/22 03:33:09;;;;;;;35.03;8.07;;;11.10;99.90;;;;;;6327981;22;20198;-77
2021/05/22 03:35:36;;;;;;;39.10;8.70;;;11.10;99.90;;;;;;6327899;22;20171;-80
2021/05/22 03:38:02;;;;;;;36.90;8.43;;;11.10;99.90;;;;;;6328556;22;20422;-80
2021/05/22 03:40:29;;;;;;;37.03;8.57;;;11.10;99.90;;;;;;6327592;22;20195;-82
2021/05/22 03:42:55;;;;;;;44.10;9.53;;;11.10;99.90;;;;;;6328150;22;20171;-78
2021/05/22 03:45:22;;;;;;;41.27;9.20;;;11.10;99.90;;;;;;6328639;22;20175;-77
2021/05/22 03:47:49;;;;;;;34.57;7.13;;;11.10;99.90;;;;;;6326890;22;20617;-81
2021/05/22 03:50:15;;;;;;;41.07;7.73;;;11.10;99.90;;;;;;6327460;22;20175;-80
2021/05/22 03:52:41;;;;;;;28.20;6.57;;;11.10;99.90;;;;;;6329072;22;20190;-82
2021/05/22 03:55:09;;;;;;;28.40;8.00;;;11.10;99.90;;;;;;6327037;22;20568;-77
2021/05/22 03:57:36;;;;;;;35.13;7.47;;;11.10;99.90;;;;;;6327589;22;20199;-80
2021/05/22 04:00:04;;;;;;;33.33;6.63;;;11.10;99.90;;;;;;6328076;22;20188;-82
2021/05/22 04:02:31;;;;;;;35.67;8.20;;;11.10;99.90;;;;;;6328159;22;20174;-78
2021/05/22 04:04:57;;;;;;;38.70;8.97;;;11.10;99.90;;;;;;6329053;22;20232;-78
2021/05/22 04:07:24;;;;;;;35.83;7.37;;;11.20;99.90;;;;;;6327611;22;20178;-80
2021/05/22 04:09:50;;;;;;;32.13;7.67;;;11.20;99.90;;;;;;6327267;22;20178;-82
2021/05/22 04:12:16;;;;;;;27.90;7.53;;;11.20;99.90;;;;;;6329370;22;20199;-80
2021/05/22 04:14:43;;;;;;;37.43;8.93;;;11.10;99.90;;;;;;6327600;22;20224;-79
2021/05/22 04:17:09;;;;;;;41.73;8.07;;;11.20;99.90;;;;;;6328683;22;20175;-82
2021/05/22 04:19:36;;;;;;;31.47;7.83;;;11.20;99.90;;;;;;6328565;22;20175;-81
2021/05/22 04:22:03;;;;;;;35.10;8.77;;;11.20;99.90;;;;;;6327821;22;20164;-79
2021/05/22 04:24:29;;;;;;;30.03;7.07;;;11.10;99.90;;;;;;6328175;22;20171;-78
2021/05/22 04:26:55;;;;;;;31.83;7.33;;;11.20;99.90;;;;;;6327840;22;20163;-77
2021/05/22 04:29:24;;;;;;;30.10;8.00;;;11.20;99.90;;;;;;6328100;22;20231;-82
2021/05/22 04:31:50;;;;;;;31.20;6.97;;;11.20;99.90;;;;;;6327306;22;20752;-79
2021/05/22 04:34:16;;;;;;;34.30;7.40;;;11.20;99.90;;;;;;6327842;22;20229;-77
2021/05/22 04:36:44;;;;;;;29.33;5.57;;;11.20;99.90;;;;;;6328201;22;20171;-78
2021/05/22 04:39:10;;;;;;;31.50;7.50;;;11.20;99.90;;;;;;6326839;22;20172;-81
2021/05/22 04:41:36;;;;;;;38.13;7.20;;;11.20;99.90;;;;;;6328158;22;20175;-81
2021/05/22 04:44:03;;;;;;;33.33;8.57;;;11.20;99.90;;;;;;6326103;22;20171;-82
2021/05/22 04:46:30;;;;;;;32.00;6.53;;;11.20;99.90;;;;;;6326954;22;20171;-77
2021/05/22 04:48:56;;;;;;;27.07;5.40;;;11.20;99.90;;;;;;6326992;22;20544;-77
2021/05/22 04:51:24;;;;;;;30.17;6.37;;;11.20;99.90;;;;;;6327371;22;20254;-82
2021/05/22 04:53:52;;;;;;;27.27;6.60;;;11.20;99.90;;;;;;6327367;22;20191;-80
2021/05/22 04:56:18;;;;;;;28.80;8.23;;;11.20;99.90;;;;;;6328153;22;20889;-76
2021/05/22 04:58:45;;;;;;;24.30;6.30;;;11.20;99.90;;;;;;6327903;22;20202;-79
2021/05/22 05:01:11;;;;;;;29.27;7.33;;;11.20;99.90;;;;;;6329466;22;20195;-80
2021/05/22 05:03:37;;;;;;;24.43;7.53;;;11.20;99.90;;;;;;6330003;22;20186;-81
2021/05/22 05:06:03;;;;;;;28.83;6.03;;;11.20;99.90;;;;;;6327742;22;20175;-84
2021/05/22 05:08:30;;;;;;;26.63;7.63;;;11.20;99.90;;;;;;6329191;22;20236;-77
2021/05/22 05:10:59;;;;;;;21.97;6.17;;;11.20;99.90;;;;;;6330572;22;20179;-81
2021/05/22 05:13:26;;;;;;;24.80;6.17;;;11.20;99.90;;;;;;6327673;22;20190;-79
2021/05/22 05:15:52;;;;;;;23.50;7.93;;;11.20;99.90;;;;;;6329618;22;20249;-81
2021/05/22 05:18:18;;;;;;;33.80;8.47;;;11.20;99.90;;;;;;6330733;22;20221;-82
2021/05/22 05:20:45;;;;;;;27.33;8.37;;;11.20;99.90;;;;;;6328842;22;20175;-82
2021/05/22 05:23:11;;;;;;;26.80;8.20;;;11.20;99.90;;;;;;6328311;22;20217;-79
2021/05/22 05:25:37;;;;;;;29.37;7.30;;;11.30;99.90;;;;;;6328435;22;20175;-80
2021/05/22 05:28:05;;;;;;;22.57;6.07;;;11.30;99.90;;;;;;6328718;22;20606;-77
2021/05/22 05:30:31;;;;;;;31.87;6.83;;;11.30;99.90;;;;;;6329268;22;20175;-79
2021/05/22 05:32:57;;;;;;;30.00;5.87;;;11.30;99.90;;;;;;6328600;22;20460;-82
2021/05/22 05:35:24;;;;;;;19.47;6.50;;;11.30;99.90;;;;;;6329513;22;20175;-80
2021/05/22 05:37:50;;;;;;;24.73;7.20;;;11.30;99.90;;;;;;6328893;22;20183;-78
2021/05/22 05:40:19;;;;;;;25.33;7.27;;;11.30;99.90;;;;;;6326980;22;20179;-80
2021/05/22 05:42:45;;;;;;;35.37;8.77;;;11.30;99.90;;;;;;6329713;22;20560;-80
2021/05/22 05:45:14;;;;;;;27.80;7.77;;;11.30;99.90;;;;;;6330143;22;20675;-83
2021/05/22 05:47:40;;;;;;;31.10;9.07;;;11.30;99.90;;;;;;6329044;22;20560;-81
2021/05/22 05:50:08;;;;;;;22.53;7.03;;;11.30;99.90;;;;;;6330708;22;20172;-82
2021/05/22 05:52:34;;;;;;;23.73;8.37;;;11.40;99.90;;;;;;6329880;22;20195;-82
2021/05/22 05:55:01;;;;;;;25.50;7.30;;;11.40;99.90;;;;;;6325609;22;20177;-83
2021/05/22 05:57:27;;;;;;;28.57;8.67;;;11.50;99.90;;;;;;6328455;22;20630;-82
2021/05/22 05:59:53;;;;;;;26.97;8.60;;;11.50;99.90;;;;;;6328984;22;20252;-79
2021/05/22 06:02:20;;;;;;;26.73;9.37;;;11.50;99.90;;;;;;6328151;22;20167;-78
2021/05/22 06:04:46;;;;;;;32.10;11.17;;;11.50;99.90;;;;;;6328555;22;20244;-84
2021/05/22 06:07:13;;;;;;;30.90;9.03;;;11.50;99.90;;;;;;6329238;22;20175;-79
2021/05/22 06:09:41;;;;;;;29.73;9.10;;;11.50;99.90;;;;;;6327908;22;20174;-80
2021/05/22 06:12:08;;;;;;;32.50;7.80;;;11.60;99.90;;;;;;6326226;22;20590;-85
2021/05/22 06:14:38;;;;;;;25.63;8.17;;;11.60;99.90;;;;;;6328078;22;20175;-83
2021/05/22 06:17:04;;;;;;;25.90;8.93;;;11.60;99.90;;;;;;6326735;22;20623;-79
2021/05/22 06:19:32;;;;;;;23.63;7.93;;;11.70;99.90;;;;;;6327772;22;20171;-79
2021/05/22 06:21:58;;;;;;;25.67;8.50;;;11.70;99.90;;;;;;6327951;22;20172;-77
2021/05/22 06:24:25;;;;;;;22.37;6.67;;;11.80;99.90;;;;;;6327140;22;20171;-85
2021/05/22 06:26:53;;;;;;;21.73;6.73;;;11.80;99.90;;;;;;6327727;22;20179;-84
2021/05/22 06:29:19;;;;;;;17.67;5.97;;;11.90;99.90;;;;;;6327908;22;20485;-83
2021/05/22 06:31:46;;;;;;;20.77;6.60;;;11.80;99.90;;;;;;6327553;22;20722;-82
2021/05/22 06:34:12;;;;;;;14.50;5.70;;;11.80;99.90;;;;;;6327100;22;20195;-78
2021/05/22 06:36:39;;;;;;;18.27;5.80;;;11.90;99.90;;;;;;6327326;22;20475;-77
2021/05/22 06:39:07;;;;;;;15.57;6.03;;;11.90;99.90;;;;;;6327183;22;20559;-77
2021/05/22 06:41:33;;;;;;;20.50;6.67;;;11.90;99.90;;;;;;6328381;22;20167;-78
2021/05/22 06:43:59;;;;;;;17.90;6.60;;;11.90;99.90;;;;;;6326392;22;20590;-80
2021/05/22 06:49:13;;;;;;;12.43;5.27;;;11.90;99.90;;;;;;6327840;22;20216;-77
2021/05/22 06:51:40;;;;;;;16.80;4.47;;;11.90;99.90;;;;;;6327558;22;20171;-79
2021/05/22 06:54:06;;;;;;;18.67;5.50;;;11.90;99.90;;;;;;6328537;22;20205;-83
2021/05/22 06:56:33;;;;;;;18.80;6.57;;;11.90;99.90;;;;;;6328815;22;20199;-84
2021/05/22 06:58:59;;;;;;;14.90;5.70;;;11.90;99.90;;;;;;6327405;22;20167;-84
2021/05/22 07:01:26;;;;;;;17.63;5.57;;;12.00;99.90;;;;;;6328251;22;20200;-78
2021/05/22 07:03:54;;;;;;;15.80;5.03;;;11.90;99.90;;;;;;6329566;22;20167;-83
2021/05/22 07:06:22;;;;;;;10.83;3.20;;;11.90;99.90;;;;;;6329263;22;20167;-83
2021/05/22 07:08:50;;;;;;;7.10;2.57;;;12.00;99.90;;;;;;6329597;22;20178;-79
2021/05/22 07:11:16;;;;;;;9.17;3.67;;;11.90;99.90;;;;;;6328819;22;20171;-82
2021/05/22 07:13:43;;;;;;;7.87;3.13;;;12.00;99.90;;;;;;6327762;22;20195;-82
2021/05/22 07:16:10;;;;;;;12.87;3.83;;;12.00;99.90;;;;;;6288944;22;20163;-83
2021/05/22 07:18:36;;;;;;;12.37;3.60;;;12.10;99.90;;;;;;6327007;22;20220;-77
2021/05/22 07:21:02;;;;;;;10.83;4.33;;;12.10;99.90;;;;;;6327686;22;20175;-81
2021/05/22 07:23:29;;;;;;;10.53;4.67;;;12.20;99.90;;;;;;6327730;22;20171;-80
2021/05/22 07:25:56;;;;;;;12.53;3.40;;;12.30;99.90;;;;;;6327239;22;20249;-78
2021/05/22 07:28:22;;;;;;;9.27;3.90;;;12.30;99.90;;;;;;6327328;22;20178;-81
2021/05/22 07:30:48;;;;;;;14.43;4.00;;;12.30;99.90;;;;;;6327448;22;20181;-79
2021/05/22 07:33:15;;;;;;;15.17;4.50;;;12.30;99.90;;;;;;6235172;22;20603;-76
2021/05/22 07:35:41;;;;;;;12.17;4.20;;;12.30;99.90;;;;;;6326636;22;20178;-77
2021/05/22 07:38:07;;;;;;;9.70;4.17;;;12.20;99.90;;;;;;6327903;22;20175;-79
2021/05/22 07:40:34;;;;;;;13.13;4.67;;;12.20;99.90;;;;;;6327272;22;20175;-82
2021/05/22 07:43:01;;;;;;;12.17;4.80;;;12.30;99.90;;;;;;6327944;22;20164;-77
2021/05/22 07:45:29;;;;;;;17.73;4.70;;;12.30;99.90;;;;;;6328819;22;20183;-78
2021/05/22 07:47:55;;;;;;;11.17;3.80;;;12.30;99.90;;;;;;6326427;22;20171;-81
2021/05/22 07:50:21;;;;;;;9.00;2.90;;;12.40;99.90;;;;;;6328245;22;20172;-79
2021/05/22 07:52:47;;;;;;;5.83;2.47;;;12.50;99.90;;;;;;6326845;22;20244;-80
2021/05/22 07:55:14;;;;;;;12.53;2.90;;;12.50;99.90;;;;;;6326561;22;20171;-80
2021/05/22 07:57:41;;;;;;;11.50;4.20;;;12.60;99.90;;;;;;6327090;22;20211;-78
2021/05/22 08:00:10;;;;;;;10.80;3.03;;;12.60;99.90;;;;;;6327623;22;20210;-77
2021/05/22 08:02:37;;;;;;;8.20;2.53;;;12.50;99.90;;;;;;6327394;22;20251;-79
2021/05/22 08:05:04;;;;;;;7.20;2.87;;;12.40;99.90;;;;;;6328598;22;20262;-78
2021/05/22 08:07:30;;;;;;;13.20;2.63;;;12.40;99.90;;;;;;6328142;22;20171;-83
2021/05/22 08:09:56;;;;;;;10.60;2.80;;;12.30;99.90;;;;;;6327461;22;20253;-81
2021/05/22 08:12:23;;;;;;;8.67;3.30;;;12.30;99.90;;;;;;6327861;22;20179;-77
2021/05/22 08:14:50;;;;;;;9.67;3.70;;;12.40;99.90;;;;;;6327398;22;20181;-77
2021/05/22 08:17:18;;;;;;;11.57;2.90;;;12.40;99.90;;;;;;6327230;22;20178;-78
2021/05/22 08:19:44;;;;;;;8.13;2.87;;;12.40;99.90;;;;;;6328765;22;20199;-81
2021/05/22 08:22:11;;;;;;;6.40;1.70;;;12.30;99.90;;;;;;6328860;22;20179;-76
2021/05/22 08:24:37;;;;;;;10.23;1.80;;;12.20;99.90;;;;;;6328422;22;20183;-77
2021/05/22 08:27:04;;;;;;;6.63;2.07;;;12.10;99.90;;;;;;6327446;22;20163;-81
2021/05/22 08:29:30;;;;;;;6.47;2.23;;;12.10;99.90;;;;;;6327905;22;20163;-82
2021/05/22 08:31:56;;;;;;;7.97;2.40;;;11.90;99.90;;;;;;6327915;22;20172;-79
2021/05/22 08:34:25;;;;;;;10.07;2.20;;;12.00;99.90;;;;;;6327856;22;20634;-77
2021/05/22 08:36:52;;;;;;;8.60;2.87;;;11.90;99.90;;;;;;6326885;22;20171;-80
2021/05/22 08:39:18;;;;;;;9.80;2.17;;;12.00;99.90;;;;;;6329404;22;20171;-78
2021/05/22 08:41:45;;;;;;;7.43;1.90;;;12.00;99.90;;;;;;6329050;22;20175;-76
2021/05/22 08:44:11;;;;;;;6.97;2.30;;;11.90;99.90;;;;;;6326568;22;20168;-79
2021/05/22 08:46:37;;;;;;;9.97;2.50;;;11.90;99.90;;;;;;6328645;22;20228;-81
2021/05/22 08:49:06;;;;;;;8.43;2.20;;;11.90;99.90;;;;;;6328548;22;20171;-82
2021/05/22 08:51:34;;;;;;;5.77;1.80;;;11.90;99.90;;;;;;6327690;22;20171;-81
2021/05/22 08:54:00;;;;;;;8.93;2.20;;;12.00;99.90;;;;;;6328142;22;20187;-82
2021/05/22 08:56:26;;;;;;;8.33;2.20;;;12.00;99.90;;;;;;6329757;22;20728;-83
2021/05/22 08:58:53;;;;;;;8.07;2.07;;;12.10;99.90;;;;;;6328988;22;20217;-83
2021/05/22 09:01:19;;;;;;;7.90;2.00;;;12.10;99.90;;;;;;6328327;22;20187;-77
2021/05/22 09:03:46;;;;;;;10.57;1.77;;;12.20;99.90;;;;;;6329732;22;20163;-76
2021/05/22 09:06:12;;;;;;;7.70;2.10;;;12.20;99.90;;;;;;6328145;22;20494;-81
2021/05/22 09:08:39;;;;;;;5.37;1.50;;;12.30;99.90;;;;;;6328771;22;20171;-81
2021/05/22 09:11:08;;;;;;;4.77;2.40;;;12.30;99.90;;;;;;6330009;22;20164;-78
2021/05/22 09:13:35;;;;;;;6.50;1.83;;;12.20;99.90;;;;;;6328343;22;20198;-85
2021/05/22 09:16:04;;;;;;;7.23;2.23;;;12.20;99.90;;;;;;6328334;22;20233;-82
2021/05/22 09:18:35;;;;;;;10.03;2.30;;;12.20;99.90;;;;;;6327972;22;20594;-79
2021/05/22 09:21:03;;;;;;;8.07;2.30;;;12.20;99.90;;;;;;6328976;22;20807;-82
2021/05/22 09:23:32;;;;;;;5.27;2.00;;;12.30;99.90;;;;;;6328164;22;20171;-77
2021/05/22 09:26:01;;;;;;;8.30;2.23;;;12.30;99.90;;;;;;6328040;22;20175;-77
2021/05/22 09:28:29;;;;;;;8.73;2.87;;;12.30;99.90;;;;;;6329295;22;20206;-81
2021/05/22 09:30:57;;;;;;;8.93;2.40;;;12.30;99.90;;;;;;6329431;22;20175;-84
2021/05/22 09:33:25;;;;;;;7.07;3.03;;;12.40;99.90;;;;;;6328701;22;20191;-84
2021/05/22 09:35:54;;;;;;;7.40;2.23;;;12.50;99.90;;;;;;6330592;22;20175;-82
2021/05/22 09:38:20;;;;;;;6.27;1.97;;;12.50;99.90;;;;;;6330119;22;20730;-80
2021/05/22 09:40:47;;;;;;;7.10;2.00;;;12.50;99.90;;;;;;6329431;22;20170;-83
2021/05/22 09:43:16;;;;;;;7.27;2.00;;;12.50;99.90;;;;;;6329606;22;20174;-82
2021/05/22 09:45:44;;;;;;;8.97;2.33;;;12.50;99.90;;;;;;6327898;22;20205;-81
2021/05/22 09:48:16;;;;;;;8.90;2.63;;;12.60;99.90;;;;;;6328971;22;20191;-82
2021/05/22 09:50:45;;;;;;;14.17;2.90;;;12.70;99.90;;;;;;6329771;22;20182;-82
2021/05/22 09:53:30;;;;;;;11.13;3.33;;;12.70;99.90;;;;;;6330987;22;20255;-76
2021/05/22 09:56:10;;;;;;;10.83;2.83;;;12.70;99.90;;;;;;6328417;22;20693;-79
2021/05/22 09:58:39;;;;;;;12.13;2.67;;;12.60;99.90;;;;;;6329070;22;20171;-84
2021/05/22 10:01:06;;;;;;;15.33;2.83;;;12.60;99.90;;;;;;6330077;22;20195;-79
2021/05/22 10:03:33;;;;;;;17.33;3.13;;;12.70;99.90;;;;;;6329624;22;20216;-77
2021/05/22 10:05:59;;;;;;;16.43;3.73;;;12.90;99.90;;;;;;6329605;22;20583;-81
2021/05/22 10:08:26;;;;;;;8.17;2.90;;;13.00;99.90;;;;;;6330630;22;20440;-84
2021/05/22 10:10:56;;;;;;;10.63;2.87;;;13.10;99.90;;;;;;6330719;22;20837;-82
2021/05/22 10:13:22;;;;;;;16.00;3.30;;;13.10;99.90;;;;;;6329108;22;20191;-79
2021/05/22 10:15:51;;;;;;;10.53;2.67;;;13.30;99.90;;;;;;6329875;22;20220;-83
2021/05/22 10:18:19;;;;;;;10.37;3.07;;;13.30;99.90;;;;;;6329844;22;20185;-80
2021/05/22 10:20:46;;;;;;;14.63;3.43;;;13.40;99.90;;;;;;6328389;22;20168;-78
2021/05/22 10:23:13;;;;;;;12.73;3.20;;;13.50;99.90;;;;;;6328816;22;20171;-86
2021/05/22 10:25:39;;;;;;;11.73;2.90;;;13.50;99.90;;;;;;6329486;22;20182;-83
2021/05/22 10:28:08;;;;;;;10.50;3.37;;;13.70;99.90;;;;;;6328214;22;20183;-85
2021/05/22 10:30:34;;;;;;;11.60;3.30;;;13.90;99.90;;;;;;6327929;22;20179;-82
2021/05/22 10:33:03;;;;;;;12.83;3.30;;;14.00;99.90;;;;;;6328590;22;20253;-80
2021/05/22 10:35:40;;;;;;;11.37;2.83;;;14.20;99.90;;;;;;6328731;22;20225;-77
2021/05/22 10:38:06;;;;;;;6.97;2.30;;;14.10;99.90;;;;;;6328614;22;20174;-80
2021/05/22 10:40:46;;;;;;;10.77;2.57;;;13.90;99.90;;;;;;6327787;22;20178;-77
2021/05/22 10:43:14;;;;;;;12.97;3.27;;;13.60;99.90;;;;;;6327821;22;20615;-76
2021/05/22 10:45:42;;;;;;;9.53;2.80;;;13.60;99.90;;;;;;6328196;22;20164;-77
2021/05/22 10:48:48;;;;;;;10.43;2.80;;;13.70;99.90;;;;;;6327602;22;20572;-76
2021/05/22 10:51:34;;;;;;;9.73;2.73;;;13.70;99.90;;;;;;6330038;22;20451;-84
2021/05/22 10:54:02;;;;;;;14.43;3.27;;;13.90;99.90;;;;;;6330867;22;20267;-84
2021/05/22 10:56:29;;;;;;;7.73;2.80;;;14.00;99.90;;;;;;6329501;22;20203;-76
2021/05/22 10:59:14;;;;;;;7.83;2.60;;;14.10;99.90;;;;;;6327067;22;20174;-85
2021/05/22 11:01:43;;;;;;;13.30;4.23;;;14.00;99.90;;;;;;6329338;22;20183;-83
2021/05/22 11:04:31;;;;;;;14.63;3.10;;;14.10;99.90;;;;;;6327827;22;20164;-75
2021/05/22 11:06:59;;;;;;;10.80;3.17;;;14.00;99.90;;;;;;6328228;22;20393;-87
2021/05/22 11:09:45;;;;;;;10.23;2.73;;;14.00;99.90;;;;;;6329656;22;20167;-84
2021/05/22 11:12:49;;;;;;;10.03;3.50;;;14.10;99.90;;;;;;6328279;22;20178;-77
2021/05/22 11:15:37;;;;;;;12.57;3.17;;;14.10;99.90;;;;;;6329937;22;20175;-81
2021/05/22 11:18:03;;;;;;;14.60;3.50;;;14.30;99.90;;;;;;6323520;22;20167;-82
2021/05/22 11:20:31;;;;;;;10.20;2.53;;;14.60;99.90;;;;;;6327627;22;20198;-76
2021/05/22 11:23:00;;;;;;;12.17;3.03;;;14.70;99.90;;;;;;6326785;22;20178;-79
2021/05/22 11:25:42;;;;;;;17.53;3.60;;;14.80;99.90;;;;;;6326881;22;20202;-79
2021/05/22 11:28:11;;;;;;;14.77;3.20;;;14.90;99.90;;;;;;6327631;22;20574;-76
2021/05/22 11:30:46;;;;;;;16.33;3.33;;;15.00;99.90;;;;;;6327865;22;20262;-78
2021/05/22 11:33:31;;;;;;;12.40;3.17;;;14.90;99.90;;;;;;6326235;22;20190;-77
2021/05/22 11:36:11;;;;;;;18.70;4.13;;;14.90;99.90;;;;;;6326539;22;20700;-76
2021/05/22 11:38:38;;;;;;;15.67;3.43;;;14.90;99.90;;;;;;6327137;22;20171;-81
2021/05/22 11:41:14;;;;;;;18.80;4.17;;;14.80;99.90;;;;;;6326703;22;20563;-82
2021/05/22 11:43:42;;;;;;;11.63;3.17;;;14.60;99.90;;;;;;6329339;22;20250;-82
2021/05/22 11:46:12;;;;;;;12.00;3.37;;;14.20;99.90;;;;;;6329257;22;20261;-81
2021/05/22 11:48:40;;;;;;;15.50;3.27;;;14.00;99.90;;;;;;6328173;22;20210;-84
2021/05/22 11:51:11;;;;;;;15.87;3.70;;;14.00;99.90;;;;;;6328237;22;20171;-86
2021/05/22 11:53:39;;;;;;;11.47;3.37;;;14.00;99.90;;;;;;6329479;22;20191;-84
2021/05/22 11:56:08;;;;;;;16.30;3.63;;;14.10;99.90;;;;;;6330198;22;20191;-75
2021/05/22 11:58:37;;;;;;;15.63;3.80;;;14.20;99.90;;;;;;6331494;22;20261;-84
2021/05/22 12:01:09;;;;;;;13.80;2.70;;;14.10;99.90;;;;;;6330953;22;20617;-76
2021/05/22 12:03:37;;;;;;;15.63;3.67;;;14.10;99.90;;;;;;6331597;22;20205;-84
2021/05/22 12:06:04;;;;;;;10.73;2.87;;;14.20;99.90;;;;;;6332022;22;20197;-76
2021/05/22 12:08:32;;;;;;;17.03;3.60;;;14.30;99.90;;;;;;6330644;22;20217;-86
2021/05/22 12:10:59;;;;;;;13.60;3.30;;;14.40;99.90;;;;;;6331309;22;20175;-86
2021/05/22 12:13:25;;;;;;;12.90;3.90;;;14.40;99.90;;;;;;6332171;22;20622;-83
2021/05/22 12:15:53;;;;;;;11.27;2.53;;;14.50;99.90;;;;;;6331120;22;20171;-83
2021/05/22 12:18:19;;;;;;;13.60;4.23;;;14.60;99.90;;;;;;6331801;22;20308;-80
2021/05/22 12:20:47;;;;;;;17.40;3.90;;;14.80;99.90;;;;;;6330994;22;20175;-86
2021/05/22 12:23:30;;;;;;;14.73;3.17;;;14.80;99.90;;;;;;6330343;22;20172;-77
2021/05/22 12:25:59;;;;;;;13.40;3.47;;;14.90;99.90;;;;;;6329545;22;20168;-83
2021/05/22 12:28:27;;;;;;;12.87;3.50;;;14.80;99.90;;;;;;6329624;22;20423;-83
2021/05/22 12:30:54;;;;;;;17.80;4.17;;;14.60;99.90;;;;;;6331585;22;20171;-84
2021/05/22 12:33:21;;;;;;;10.87;2.97;;;14.50;99.90;;;;;;6330319;22;20191;-76
2021/05/22 12:36:03;;;;;;;12.97;3.20;;;14.40;99.90;;;;;;6331042;22;20172;-76
2021/05/22 12:38:39;;;;;;;10.30;3.03;;;14.40;99.90;;;;;;6330850;22;20160;-82
2021/05/22 12:41:06;;;;;;;13.13;3.30;;;14.30;99.90;;;;;;6331444;22;20167;-81
2021/05/22 12:43:44;;;;;;;8.17;2.67;;;14.30;99.90;;;;;;6330133;22;20172;-79
2021/05/22 12:46:24;;;;;;;9.20;2.43;;;14.20;99.90;;;;;;6330519;22;20227;-81